EGBJ/GLO METAR and TAF weather

Enter ICAO airport designator
Station Type Date Time Source
EGBJ METAR 2019/02/23 17:20 UTC NOAA

EGBJ 231720Z 18004KT 6000 NSC 13/09 Q1032


Station Type Date Time Source
EGBJ Decoded METAR 2019/02/23 17:20 UTC NOAA

Staverton Private , United Kingdom (EGBJ) 51-54N 002-10W
Feb 23, 2019 - 12:20 PM EST / 2019.02.23 1720 UTC
Wind: from the S (180 degrees) at 5 MPH (4 KT):0
Visibility: 3 mile(s):0
Temperature: 55 F (13 C)
Dew Point: 48 F (9 C)
Relative Humidity: 76%
Pressure (altimeter): 30.47 in. Hg (1032 hPa)
ob: EGBJ 231720Z 18004KT 6000 NSC 13/09 Q1032
cycle: 17

Station Type Date Time Source
EGBJ TAF UTC NOAA

Error!


Example: see airport list